Time;durP1;ratioP1;P1;durP2;ratioP2;P2;SDS_P1;SDS_P2;PMS_P1;PMS_P2;Temp;Humidity;BMP_temperature;BMP_pressure;BME280_temperature;BME280_humidity;BME280_pressure;Samples;Min_cycle;Max_cycle;Signal;HPM_P1;HPM_P2
2022/12/11 00:00:11;;;;;;;23.88;12.30;;;3.90;99.90;;;;;;4991873;28;20208;-79
2022/12/11 00:02:36;;;;;;;29.85;12.38;;;4.10;99.90;;;;;;4993104;28;20607;-83
2022/12/11 00:05:02;;;;;;;22.75;11.90;;;4.20;99.90;;;;;;4993130;28;20200;-80
2022/12/11 00:07:28;;;;;;;19.75;11.18;;;4.40;99.90;;;;;;4992909;28;20209;-84
2022/12/11 00:09:53;;;;;;;26.88;13.57;;;4.20;99.90;;;;;;4992537;28;20180;-80
2022/12/11 00:12:19;;;;;;;23.70;13.45;;;4.30;99.90;;;;;;5002970;28;20193;-78
2022/12/11 00:14:44;;;;;;;23.52;11.82;;;4.40;99.90;;;;;;5002335;28;20168;-80
2022/12/11 00:17:10;;;;;;;23.67;12.02;;;4.20;99.90;;;;;;5002273;28;20173;-80
2022/12/11 00:19:36;;;;;;;23.20;10.77;;;4.10;99.90;;;;;;4997951;28;20169;-81
2022/12/11 00:22:02;;;;;;;19.75;11.57;;;3.90;99.90;;;;;;5003826;28;20243;-82
2022/12/11 00:24:27;;;;;;;30.48;12.02;;;3.80;99.90;;;;;;5001333;28;20196;-79
2022/12/11 00:26:54;;;;;;;24.42;12.05;;;3.70;99.90;;;;;;5002419;28;20255;-78
2022/12/11 00:29:22;;;;;;;23.83;13.52;;;3.80;99.90;;;;;;5006306;28;20170;-80
2022/12/11 00:31:47;;;;;;;24.90;12.25;;;3.90;99.90;;;;;;5007114;28;20200;-80
2022/12/11 00:34:15;;;;;;;23.95;13.32;;;4.00;99.90;;;;;;5006408;28;20177;-80
2022/12/11 00:36:41;;;;;;;20.13;11.73;;;4.10;99.90;;;;;;5005608;28;20173;-79
2022/12/11 00:39:11;;;;;;;24.70;11.82;;;4.10;99.90;;;;;;4996756;28;20177;-80
2022/12/11 00:41:36;;;;;;;20.05;11.65;;;4.10;99.90;;;;;;5005801;28;20203;-79
2022/12/11 00:44:04;;;;;;;21.08;11.38;;;4.00;99.90;;;;;;5008418;28;20169;-78
2022/12/11 00:46:29;;;;;;;20.95;11.95;;;3.90;99.90;;;;;;5004321;28;20209;-80
2022/12/11 00:48:55;;;;;;;19.65;10.73;;;4.10;99.90;;;;;;5005394;28;20200;-79
2022/12/11 00:51:21;;;;;;;22.60;11.50;;;4.00;99.90;;;;;;5004541;28;20189;-79
2022/12/11 00:53:46;;;;;;;23.15;12.00;;;4.10;99.90;;;;;;5003968;28;20170;-79
2022/12/11 00:56:15;;;;;;;23.55;12.70;;;4.20;99.90;;;;;;5008589;28;20165;-79
2022/12/11 00:58:41;;;;;;;24.20;11.88;;;4.00;99.90;;;;;;5014911;28;20157;-79
2022/12/11 01:01:09;;;;;;;19.42;11.52;;;3.90;99.90;;;;;;5007579;28;20247;-79
2022/12/11 01:03:36;;;;;;;21.85;12.00;;;3.90;99.90;;;;;;4996867;28;20177;-80
2022/12/11 01:06:03;;;;;;;21.88;12.45;;;4.00;99.90;;;;;;4995943;28;20208;-78
2022/12/11 01:08:29;;;;;;;21.45;11.88;;;3.90;99.90;;;;;;4996048;28;20162;-80
2022/12/11 01:11:09;;;;;;;23.45;12.18;;;3.70;99.90;;;;;;4995903;28;20274;-79
2022/12/11 01:13:35;;;;;;;16.45;10.50;;;3.90;99.90;;;;;;4995715;28;20153;-80
2022/12/11 01:16:06;;;;;;;19.73;12.13;;;3.80;99.90;;;;;;4994819;28;20267;-80
2022/12/11 01:18:31;;;;;;;27.52;13.05;;;4.20;99.90;;;;;;4995943;28;20642;-79
2022/12/11 01:20:57;;;;;;;25.17;12.05;;;4.40;99.90;;;;;;4995659;28;20247;-79
2022/12/11 01:23:22;;;;;;;20.25;11.27;;;4.40;99.90;;;;;;4996162;28;20208;-84
2022/12/11 01:25:48;;;;;;;28.27;13.02;;;4.30;99.90;;;;;;4995555;28;20287;-80
2022/12/11 01:28:14;;;;;;;23.70;13.18;;;4.10;99.90;;;;;;4995752;28;20524;-79
2022/12/11 01:30:42;;;;;;;22.42;12.35;;;4.10;99.90;;;;;;4995369;28;20280;-80
2022/12/11 01:33:07;;;;;;;22.63;11.88;;;4.10;99.90;;;;;;4993265;28;20169;-80
2022/12/11 01:35:33;;;;;;;20.90;12.43;;;4.00;99.90;;;;;;4995150;28;20245;-80
2022/12/11 01:37:58;;;;;;;27.65;11.45;;;4.10;99.90;;;;;;4995248;28;20488;-81
2022/12/11 01:40:24;;;;;;;21.13;12.65;;;4.30;99.90;;;;;;4995842;28;20177;-79
2022/12/11 01:42:50;;;;;;;19.35;11.50;;;4.30;99.90;;;;;;4994096;28;20181;-79
2022/12/11 01:45:21;;;;;;;31.55;13.93;;;4.40;99.90;;;;;;4995539;28;20260;-84
2022/12/11 01:47:48;;;;;;;19.48;10.55;;;4.20;99.90;;;;;;4995338;28;20192;-79
2022/12/11 01:50:14;;;;;;;21.15;11.82;;;4.10;99.90;;;;;;4995276;28;20165;-79
2022/12/11 01:52:41;;;;;;;30.77;13.43;;;4.00;99.90;;;;;;4995201;28;20174;-81
2022/12/11 01:55:08;;;;;;;23.48;12.82;;;4.10;99.90;;;;;;4995586;28;20648;-81
2022/12/11 01:57:40;;;;;;;22.58;12.15;;;4.20;99.90;;;;;;4996166;28;20179;-79
2022/12/11 02:00:06;;;;;;;24.80;13.95;;;4.30;99.90;;;;;;4995256;28;20197;-81
2022/12/11 02:02:32;;;;;;;29.00;14.50;;;4.40;99.90;;;;;;4995505;28;20216;-80
2022/12/11 02:05:00;;;;;;;23.80;12.70;;;4.30;99.90;;;;;;4996478;28;20177;-79
2022/12/11 02:07:27;;;;;;;28.98;13.48;;;4.30;99.90;;;;;;4995557;28;20204;-79
2022/12/11 02:09:53;;;;;;;31.08;13.65;;;4.30;99.90;;;;;;4996552;28;20161;-81
2022/12/11 02:12:51;;;;;;;33.67;12.45;;;4.40;99.90;;;;;;4995776;28;20189;-86
2022/12/11 02:15:55;;;;;;;23.13;13.02;;;4.50;99.90;;;;;;4994884;28;20181;-78
2022/12/11 02:18:45;;;;;;;28.10;12.82;;;4.60;99.90;;;;;;4991415;28;20185;-79
2022/12/11 02:21:27;;;;;;;25.80;13.07;;;4.50;99.90;;;;;;4995235;28;20716;-81
2022/12/11 02:24:30;;;;;;;23.25;12.68;;;4.70;99.90;;;;;;4994572;28;20165;-80
2022/12/11 02:27:16;;;;;;;22.02;12.52;;;4.40;99.90;;;;;;4993611;28;20227;-81
2022/12/11 02:30:01;;;;;;;22.00;13.02;;;4.60;99.90;;;;;;4994619;28;20526;-78
2022/12/11 02:32:44;;;;;;;23.50;13.20;;;4.60;99.90;;;;;;4993876;28;20209;-79
2022/12/11 02:35:38;;;;;;;26.98;12.63;;;4.30;99.90;;;;;;4994507;28;20161;-80
2022/12/11 02:38:14;;;;;;;22.20;12.88;;;4.20;99.90;;;;;;4993267;28;20181;-80
2022/12/11 02:40:41;;;;;;;24.30;14.10;;;4.40;99.90;;;;;;4994113;28;20196;-82
2022/12/11 02:43:10;;;;;;;22.10;12.88;;;4.40;99.90;;;;;;4994106;28;20161;-79
2022/12/11 02:45:39;;;;;;;24.48;13.75;;;4.60;99.90;;;;;;4994307;28;20209;-81
2022/12/11 02:48:06;;;;;;;24.42;13.25;;;4.50;99.90;;;;;;4994393;28;20173;-80
2022/12/11 02:50:34;;;;;;;27.10;12.80;;;4.40;99.90;;;;;;4994243;28;20177;-79
2022/12/11 02:53:03;;;;;;;22.85;12.57;;;4.40;99.90;;;;;;4994327;28;20169;-80
2022/12/11 02:55:32;;;;;;;27.77;13.43;;;4.30;99.90;;;;;;4992851;28;20654;-84
2022/12/11 02:58:06;;;;;;;33.28;14.00;;;4.20;99.90;;;;;;4992941;28;20263;-81
2022/12/11 03:00:32;;;;;;;25.48;13.02;;;4.30;99.90;;;;;;4993625;28;20165;-79
2022/12/11 03:02:58;;;;;;;20.17;12.35;;;4.40;99.90;;;;;;4993821;28;20252;-78
2022/12/11 03:05:25;;;;;;;25.10;13.73;;;4.20;99.90;;;;;;4993593;28;20566;-79
2022/12/11 03:07:51;;;;;;;25.02;14.15;;;4.10;99.90;;;;;;4993869;28;20170;-79
2022/12/11 03:10:18;;;;;;;25.30;13.75;;;4.20;99.90;;;;;;4993795;28;20184;-79
2022/12/11 03:12:49;;;;;;;32.30;14.95;;;4.30;99.90;;;;;;4992485;28;20180;-79
2022/12/11 03:15:17;;;;;;;38.70;14.85;;;4.30;99.90;;;;;;4993977;28;20185;-80
2022/12/11 03:18:14;;;;;;;27.65;14.63;;;4.20;99.90;;;;;;4993838;28;20176;-79
2022/12/11 03:20:46;;;;;;;27.85;14.07;;;4.20;99.90;;;;;;4991749;28;20291;-80
2022/12/11 03:23:11;;;;;;;26.50;15.27;;;4.30;99.90;;;;;;4992317;28;20173;-79
2022/12/11 03:26:00;;;;;;;34.35;15.43;;;4.10;99.90;;;;;;4993496;28;20208;-79
2022/12/11 03:28:30;;;;;;;31.17;16.67;;;3.90;99.90;;;;;;4992758;28;20209;-79
2022/12/11 03:30:57;;;;;;;31.05;15.43;;;3.80;99.90;;;;;;4993564;28;20197;-79
2022/12/11 03:33:28;;;;;;;35.15;14.52;;;4.10;99.90;;;;;;4993256;28;20173;-79
2022/12/11 03:36:06;;;;;;;29.13;13.95;;;4.00;99.90;;;;;;4993179;28;20169;-80
2022/12/11 03:38:50;;;;;;;31.20;15.40;;;3.90;99.90;;;;;;4993268;28;20170;-79
2022/12/11 03:41:20;;;;;;;25.60;15.13;;;3.90;99.90;;;;;;4993417;28;20189;-79
2022/12/11 03:43:48;;;;;;;32.33;14.18;;;4.00;99.90;;;;;;4993546;28;20177;-79
2022/12/11 03:46:15;;;;;;;27.60;15.85;;;4.00;99.90;;;;;;4993328;28;20204;-79
2022/12/11 03:48:46;;;;;;;33.85;15.60;;;4.00;99.90;;;;;;4992026;28;20222;-80
2022/12/11 03:51:13;;;;;;;34.72;15.73;;;3.90;99.90;;;;;;4993500;28;20192;-78
2022/12/11 03:53:39;;;;;;;32.40;16.50;;;4.10;99.90;;;;;;4993714;28;20197;-79
2022/12/11 03:56:07;;;;;;;30.60;15.05;;;4.20;99.90;;;;;;4992654;28;20204;-79
2022/12/11 03:58:33;;;;;;;40.53;17.00;;;4.10;99.90;;;;;;4993744;28;20201;-79
2022/12/11 04:00:59;;;;;;;32.05;15.38;;;4.00;99.90;;;;;;4996262;28;20185;-77
2022/12/11 04:03:24;;;;;;;34.67;16.50;;;4.00;99.90;;;;;;4994233;28;20168;-77
2022/12/11 04:05:53;;;;;;;33.95;17.15;;;4.00;99.90;;;;;;4996929;28;20203;-77
2022/12/11 04:08:20;;;;;;;32.95;16.20;;;4.00;99.90;;;;;;4998618;28;20639;-78
2022/12/11 04:10:46;;;;;;;28.23;14.82;;;3.90;99.90;;;;;;5002386;28;20195;-78
2022/12/11 04:13:14;;;;;;;33.30;15.68;;;4.30;99.90;;;;;;5002533;28;20606;-78
2022/12/11 04:15:40;;;;;;;34.55;16.40;;;4.50;99.90;;;;;;5000700;28;20630;-78
2022/12/11 04:26:24;;;;;;;30.02;15.48;;;4.50;99.90;;;;;;5002533;28;20600;-82
2022/12/11 04:28:55;;;;;;;29.30;14.85;;;4.60;99.90;;;;;;4998783;28;20555;-80
2022/12/11 04:31:21;;;;;;;32.47;15.98;;;4.50;99.90;;;;;;4987008;28;20243;-78
2022/12/11 04:33:47;;;;;;;30.20;16.83;;;4.20;99.90;;;;;;5005057;28;20173;-80
2022/12/11 04:36:13;;;;;;;38.47;15.65;;;4.10;99.90;;;;;;5008424;28;20169;-79
2022/12/11 04:38:40;;;;;;;36.97;15.43;;;4.30;99.90;;;;;;5002816;28;20161;-78
2022/12/11 04:41:09;;;;;;;32.05;17.67;;;4.40;99.90;;;;;;4982925;28;20272;-81
2022/12/11 04:43:35;;;;;;;35.05;16.77;;;4.30;99.90;;;;;;4995923;28;20645;-78
2022/12/11 04:46:09;;;;;;;35.28;16.90;;;4.40;99.90;;;;;;5001265;28;20197;-78
2022/12/11 04:48:37;;;;;;;35.67;16.77;;;4.30;99.90;;;;;;5001726;28;20253;-78
2022/12/11 04:51:03;;;;;;;29.48;16.10;;;4.20;99.90;;;;;;4998786;28;20193;-82
2022/12/11 04:53:29;;;;;;;37.15;17.90;;;4.10;99.90;;;;;;5001579;28;20183;-83
2022/12/11 04:55:56;;;;;;;33.42;17.08;;;4.30;99.90;;;;;;5000859;28;20238;-77
2022/12/11 04:58:22;;;;;;;32.40;17.33;;;4.20;99.90;;;;;;4999540;28;20176;-80
2022/12/11 05:00:48;;;;;;;41.85;18.10;;;4.10;99.90;;;;;;5003221;28;20194;-81
2022/12/11 05:03:21;;;;;;;35.28;16.95;;;4.10;99.90;;;;;;4999270;28;20204;-78
2022/12/11 05:05:52;;;;;;;38.70;15.88;;;4.10;99.90;;;;;;5005158;28;20197;-78
2022/12/11 05:08:19;;;;;;;39.13;17.73;;;4.00;99.90;;;;;;5003155;28;20678;-77
2022/12/11 05:10:57;;;;;;;36.78;15.75;;;4.00;99.90;;;;;;4995899;28;20185;-78
2022/12/11 05:13:23;;;;;;;42.45;16.25;;;3.80;99.90;;;;;;4995915;28;20204;-78
2022/12/11 05:15:49;;;;;;;35.08;17.30;;;3.80;99.90;;;;;;4995541;28;20209;-78
2022/12/11 05:18:14;;;;;;;44.30;16.95;;;4.00;99.90;;;;;;4995991;28;20200;-77
2022/12/11 05:20:40;;;;;;;36.25;17.45;;;4.10;99.90;;;;;;4995517;28;20190;-77
2022/12/11 05:23:05;;;;;;;45.13;18.20;;;4.10;99.90;;;;;;4995675;28;20529;-77
2022/12/11 05:25:31;;;;;;;44.10;18.60;;;4.20;99.90;;;;;;4995562;28;20172;-77
2022/12/11 05:27:56;;;;;;;41.30;17.52;;;4.40;99.90;;;;;;4999192;28;20227;-77
2022/12/11 05:30:22;;;;;;;39.35;17.90;;;4.20;99.90;;;;;;5005959;28;20686;-77
2022/12/11 05:32:48;;;;;;;35.78;16.90;;;4.00;99.90;;;;;;5000518;28;20173;-77
2022/12/11 05:35:14;;;;;;;38.92;17.00;;;4.00;99.90;;;;;;5001902;28;20236;-78
2022/12/11 05:37:40;;;;;;;44.05;17.00;;;4.00;99.90;;;;;;5001819;28;20193;-78
2022/12/11 05:40:08;;;;;;;40.00;19.60;;;4.00;99.90;;;;;;4999205;28;20169;-78
2022/12/11 05:42:34;;;;;;;43.45;18.45;;;4.10;99.90;;;;;;5002599;28;20215;-82
2022/12/11 05:45:01;;;;;;;40.50;17.45;;;4.10;99.90;;;;;;5002723;28;20201;-78
2022/12/11 05:47:26;;;;;;;38.53;16.27;;;3.90;99.90;;;;;;5002084;28;20578;-77
2022/12/11 05:49:52;;;;;;;36.22;18.13;;;4.10;99.90;;;;;;5003946;28;20768;-78
2022/12/11 05:52:20;;;;;;;33.15;16.60;;;4.40;99.90;;;;;;4999622;28;20288;-78
2022/12/11 05:54:48;;;;;;;32.00;17.30;;;4.50;99.90;;;;;;5001075;28;20158;-78
2022/12/11 05:57:13;;;;;;;32.63;16.70;;;4.30;99.90;;;;;;5001772;28;20173;-79
2022/12/11 05:59:39;;;;;;;38.08;17.63;;;4.10;99.90;;;;;;5003130;28;20176;-77
2022/12/11 06:02:05;;;;;;;36.42;16.75;;;4.30;99.90;;;;;;5001850;28;20193;-78
2022/12/11 06:04:30;;;;;;;42.30;17.88;;;4.20;99.90;;;;;;5002464;28;20200;-80
2022/12/11 06:06:56;;;;;;;36.45;17.27;;;4.20;99.90;;;;;;5002431;28;20205;-80
2022/12/11 06:09:22;;;;;;;41.33;18.25;;;4.10;99.90;;;;;;4994810;28;20177;-78
2022/12/11 06:11:47;;;;;;;38.10;17.13;;;4.30;99.90;;;;;;4994479;28;20673;-81
2022/12/11 06:14:13;;;;;;;36.75;17.50;;;4.50;99.90;;;;;;4995074;28;20184;-80
2022/12/11 06:16:38;;;;;;;43.38;17.92;;;4.50;99.90;;;;;;4994204;28;20260;-78
2022/12/11 06:19:04;;;;;;;42.72;17.48;;;4.10;99.90;;;;;;4992969;28;20208;-82
2022/12/11 06:21:31;;;;;;;48.10;18.75;;;3.90;99.90;;;;;;4994645;28;20673;-78
2022/12/11 06:24:01;;;;;;;35.22;17.63;;;3.70;99.90;;;;;;4996556;28;20161;-77
2022/12/11 06:26:29;;;;;;;42.05;16.85;;;3.80;99.90;;;;;;4988847;28;20256;-77
2022/12/11 06:28:54;;;;;;;39.03;17.98;;;3.80;99.90;;;;;;4985988;28;20169;-79
2022/12/11 06:31:20;;;;;;;36.90;16.70;;;3.90;99.90;;;;;;4998553;28;20301;-79
2022/12/11 06:33:46;;;;;;;33.33;16.15;;;3.90;99.90;;;;;;4998697;28;20657;-78
2022/12/11 06:36:15;;;;;;;36.03;16.17;;;3.70;99.90;;;;;;5003828;28;20173;-77
2022/12/11 06:38:46;;;;;;;41.22;18.08;;;3.70;99.90;;;;;;5000966;28;20196;-77
2022/12/11 06:41:14;;;;;;;35.85;17.83;;;3.70;99.90;;;;;;4981745;28;20304;-78
2022/12/11 06:43:41;;;;;;;30.38;16.08;;;3.50;99.90;;;;;;4997550;28;20186;-78
2022/12/11 06:46:10;;;;;;;39.83;17.08;;;3.60;99.90;;;;;;5002127;28;20235;-82
2022/12/11 06:48:36;;;;;;;38.08;16.63;;;3.60;99.90;;;;;;5010743;28;20169;-77
2022/12/11 06:51:07;;;;;;;40.47;16.90;;;3.70;99.90;;;;;;5001788;28;20692;-79
2022/12/11 06:53:32;;;;;;;39.17;18.45;;;3.80;99.90;;;;;;4992646;28;20173;-78
2022/12/11 06:56:09;;;;;;;38.05;16.58;;;3.80;99.90;;;;;;4992929;28;20166;-78
2022/12/11 06:58:36;;;;;;;42.88;18.15;;;3.80;99.90;;;;;;4992740;28;20556;-79
2022/12/11 07:01:04;;;;;;;45.88;18.98;;;3.70;99.90;;;;;;4992623;28;20189;-79
2022/12/11 07:03:30;;;;;;;42.35;17.02;;;3.90;99.90;;;;;;4678888;28;20581;-78
2022/12/11 07:06:01;;;;;;;44.85;17.15;;;3.90;99.90;;;;;;4835058;28;20203;-80
2022/12/11 07:08:28;;;;;;;45.60;18.02;;;3.70;99.90;;;;;;4993696;28;20188;-78
2022/12/11 07:10:53;;;;;;;43.67;17.48;;;3.60;99.90;;;;;;4993405;28;20189;-79
2022/12/11 07:13:19;;;;;;;40.20;16.95;;;3.60;99.90;;;;;;4993595;28;20175;-77
2022/12/11 07:15:44;;;;;;;39.42;17.02;;;3.70;99.90;;;;;;4993615;28;20172;-77
2022/12/11 07:18:10;;;;;;;31.13;15.68;;;3.70;99.90;;;;;;4993518;28;20629;-77
2022/12/11 07:20:35;;;;;;;33.47;15.50;;;3.80;99.90;;;;;;4994993;28;20185;-77
2022/12/11 07:23:01;;;;;;;37.58;16.52;;;3.70;99.90;;;;;;5001111;28;20177;-79
2022/12/11 07:25:26;;;;;;;42.83;17.85;;;3.80;99.90;;;;;;4996871;28;20184;-77
2022/12/11 07:27:53;;;;;;;39.13;17.73;;;3.80;99.90;;;;;;5002650;28;20173;-79
2022/12/11 07:30:19;;;;;;;34.03;15.95;;;3.80;99.90;;;;;;4998538;28;20227;-80
2022/12/11 07:32:45;;;;;;;35.75;16.60;;;3.70;99.90;;;;;;4998862;28;20605;-77
2022/12/11 07:35:13;;;;;;;38.50;17.08;;;3.80;99.90;;;;;;4998183;28;20173;-79
2022/12/11 07:37:40;;;;;;;36.75;16.60;;;3.90;99.90;;;;;;4998946;28;20181;-77
2022/12/11 07:40:06;;;;;;;36.92;17.27;;;4.10;99.90;;;;;;5003604;28;20161;-78
2022/12/11 07:42:32;;;;;;;39.72;16.77;;;4.20;99.90;;;;;;5003591;28;20193;-79
2022/12/11 07:45:04;;;;;;;30.88;14.95;;;4.30;99.90;;;;;;5001238;28;20177;-78
2022/12/11 07:47:30;;;;;;;33.55;15.90;;;4.10;99.90;;;;;;5004019;28;20230;-82
2022/12/11 07:49:55;;;;;;;40.08;16.50;;;4.00;99.90;;;;;;5000050;28;20562;-78
2022/12/11 07:52:21;;;;;;;41.80;16.88;;;4.00;99.90;;;;;;5001398;28;20244;-79
2022/12/11 07:54:47;;;;;;;37.83;16.95;;;4.10;99.90;;;;;;4998794;28;20606;-78
2022/12/11 07:57:14;;;;;;;39.75;17.65;;;4.20;99.90;;;;;;4999316;28;20173;-77
2022/12/11 07:59:40;;;;;;;43.53;17.55;;;3.90;99.90;;;;;;4996637;28;20184;-78
2022/12/11 08:02:08;;;;;;;30.80;15.25;;;3.90;99.90;;;;;;4997290;28;20185;-78
2022/12/11 08:04:33;;;;;;;35.95;17.20;;;4.10;99.90;;;;;;4993055;28;20536;-78
2022/12/11 08:06:59;;;;;;;35.83;16.52;;;3.90;99.90;;;;;;4992762;28;20212;-77
2022/12/11 08:09:24;;;;;;;48.05;17.88;;;3.70;99.90;;;;;;4993820;28;20165;-82
2022/12/11 08:11:51;;;;;;;32.45;15.80;;;3.70;99.90;;;;;;4998250;28;20223;-77
2022/12/11 08:14:17;;;;;;;39.05;16.48;;;3.60;99.90;;;;;;5004895;28;20196;-78
2022/12/11 08:16:43;;;;;;;36.05;16.23;;;3.40;99.90;;;;;;5006447;28;20212;-78
2022/12/11 08:19:13;;;;;;;38.78;16.52;;;3.50;99.90;;;;;;5005630;28;20176;-78
2022/12/11 08:21:39;;;;;;;33.28;16.75;;;3.70;99.90;;;;;;5006671;28;20203;-78
2022/12/11 08:24:15;;;;;;;36.42;17.52;;;3.70;99.90;;;;;;5002199;28;20165;-78
2022/12/11 08:26:41;;;;;;;44.53;19.52;;;3.80;99.90;;;;;;4999191;28;20259;-78
2022/12/11 08:29:06;;;;;;;39.92;16.95;;;3.80;99.90;;;;;;5001841;28;20158;-79
2022/12/11 08:31:33;;;;;;;37.70;16.50;;;3.90;99.90;;;;;;5000320;28;20204;-79
2022/12/11 08:34:00;;;;;;;32.42;15.93;;;4.00;99.90;;;;;;4999918;28;20165;-77
2022/12/11 08:36:26;;;;;;;37.17;16.23;;;3.90;99.90;;;;;;4998910;28;20184;-77
2022/12/11 08:38:55;;;;;;;40.28;15.57;;;4.00;99.90;;;;;;5000320;28;20165;-79
2022/12/11 08:41:29;;;;;;;41.85;17.27;;;4.10;99.90;;;;;;5004074;28;20259;-79
2022/12/11 08:44:02;;;;;;;35.25;16.42;;;4.20;99.90;;;;;;5006504;28;20166;-79
2022/12/11 08:46:34;;;;;;;40.95;17.42;;;4.20;99.90;;;;;;5010758;28;20212;-76
2022/12/11 08:49:03;;;;;;;36.22;16.30;;;4.20;99.90;;;;;;5010907;28;20173;-78
2022/12/11 08:51:29;;;;;;;31.15;15.85;;;4.10;99.90;;;;;;5009946;28;20290;-78
2022/12/11 08:53:59;;;;;;;36.15;16.65;;;4.10;99.90;;;;;;4998542;28;20635;-79
2022/12/11 08:56:26;;;;;;;40.50;15.63;;;4.20;99.90;;;;;;4996088;28;20292;-79
2022/12/11 08:58:54;;;;;;;29.40;14.85;;;4.40;99.90;;;;;;4995628;28;20641;-80
2022/12/11 09:01:25;;;;;;;38.28;16.77;;;4.40;99.90;;;;;;5005286;28;20177;-78
2022/12/11 09:03:52;;;;;;;38.30;16.10;;;4.30;99.90;;;;;;5015612;28;20173;-77
2022/12/11 09:06:20;;;;;;;35.22;14.27;;;4.30;99.90;;;;;;5002447;28;20212;-77
2022/12/11 09:08:48;;;;;;;26.20;14.10;;;4.40;99.90;;;;;;4996478;28;20228;-77
2022/12/11 09:11:17;;;;;;;29.23;15.45;;;4.60;99.90;;;;;;4997105;28;20208;-77
2022/12/11 09:13:43;;;;;;;28.05;14.80;;;4.70;99.90;;;;;;4996200;28;20161;-81
2022/12/11 09:16:12;;;;;;;30.92;14.73;;;4.50;99.90;;;;;;4995892;28;20656;-78
2022/12/11 09:18:38;;;;;;;38.15;16.70;;;4.20;99.90;;;;;;4996004;28;20181;-78
2022/12/11 09:21:16;;;;;;;31.30;16.95;;;4.30;99.90;;;;;;4996269;28;20189;-81
2022/12/11 09:23:42;;;;;;;32.70;14.35;;;4.40;99.90;;;;;;4996472;28;20570;-78
2022/12/11 09:26:10;;;;;;;23.17;12.90;;;4.00;99.90;;;;;;4996613;28;20288;-78
2022/12/11 09:28:36;;;;;;;24.10;12.32;;;3.90;99.90;;;;;;4996266;28;20260;-79
2022/12/11 09:31:10;;;;;;;30.00;13.18;;;3.80;99.90;;;;;;4994449;28;20216;-79
2022/12/11 09:33:37;;;;;;;24.30;13.07;;;3.90;99.90;;;;;;4995682;28;20219;-79
2022/12/11 09:36:03;;;;;;;27.80;14.18;;;4.00;99.90;;;;;;4996610;28;20173;-79
2022/12/11 09:38:30;;;;;;;41.15;22.23;;;4.20;99.90;;;;;;4995130;28;20192;-78
2022/12/11 09:40:56;;;;;;;32.60;16.13;;;4.30;99.90;;;;;;4996240;28;20186;-85
2022/12/11 09:43:45;;;;;;;29.80;13.85;;;4.40;99.90;;;;;;5000203;28;20157;-83
2022/12/11 09:46:12;;;;;;;25.65;12.52;;;4.60;99.90;;;;;;5001302;28;20208;-80
2022/12/11 09:48:45;;;;;;;37.63;15.02;;;4.70;99.90;;;;;;4996326;28;20201;-79
2022/12/11 09:51:20;;;;;;;30.35;12.77;;;4.60;99.90;;;;;;4993868;28;20284;-80
2022/12/11 09:53:45;;;;;;;33.88;15.20;;;4.80;99.90;;;;;;4994720;28;20646;-81
2022/12/11 09:56:31;;;;;;;34.30;13.88;;;4.90;99.90;;;;;;4996575;28;20187;-79
2022/12/11 09:59:24;;;;;;;30.98;14.02;;;4.80;99.90;;;;;;4994763;28;20177;-80
2022/12/11 10:02:12;;;;;;;29.30;14.77;;;4.90;99.90;;;;;;4993713;28;20181;-80
2022/12/11 10:04:58;;;;;;;29.73;15.10;;;4.70;99.90;;;;;;4996019;28;20495;-81
2022/12/11 10:07:46;;;;;;;47.70;16.15;;;4.50;99.90;;;;;;4995075;28;20227;-79
2022/12/11 10:10:30;;;;;;;30.50;14.32;;;4.40;99.90;;;;;;4993537;28;20184;-80
2022/12/11 10:13:29;;;;;;;33.78;15.50;;;4.50;99.90;;;;;;4994355;28;20169;-80
2022/12/11 10:16:16;;;;;;;32.28;14.40;;;4.20;99.90;;;;;;4996037;28;20169;-80
2022/12/11 10:18:42;;;;;;;33.65;14.15;;;4.10;99.90;;;;;;4998836;28;20173;-79
2022/12/11 10:21:09;;;;;;;28.70;14.35;;;4.20;99.90;;;;;;4997386;28;20208;-80
2022/12/11 10:23:59;;;;;;;34.42;15.20;;;4.30;99.90;;;;;;4996920;28;20177;-80
2022/12/11 10:26:28;;;;;;;35.25;15.25;;;4.30;99.90;;;;;;4997315;28;20242;-80
2022/12/11 10:29:01;;;;;;;35.08;14.43;;;4.20;99.90;;;;;;4995485;28;20658;-79
2022/12/11 10:32:00;;;;;;;35.25;15.90;;;4.30;99.90;;;;;;4995949;28;20239;-79
2022/12/11 10:34:34;;;;;;;41.92;16.42;;;4.50;99.90;;;;;;4996520;28;20211;-79
2022/12/11 10:37:01;;;;;;;31.33;15.40;;;4.50;99.90;;;;;;4995624;28;20227;-79
2022/12/11 10:39:27;;;;;;;36.67;16.25;;;4.40;99.90;;;;;;4998016;28;20168;-79
2022/12/11 10:41:55;;;;;;;37.60;15.32;;;4.50;99.90;;;;;;4997274;28;20281;-80
2022/12/11 10:44:28;;;;;;;31.27;14.82;;;4.60;99.90;;;;;;5002220;28;20181;-83
2022/12/11 10:47:13;;;;;;;30.25;13.70;;;4.70;99.90;;;;;;5001220;28;20355;-82
2022/12/11 10:49:51;;;;;;;27.83;13.77;;;4.70;99.90;;;;;;5000841;28;20177;-80
2022/12/11 10:52:22;;;;;;;33.17;13.00;;;4.90;99.90;;;;;;5011693;28;20282;-79
2022/12/11 10:54:57;;;;;;;40.83;12.93;;;5.00;99.90;;;;;;5013878;28;20177;-80
2022/12/11 10:57:29;;;;;;;26.35;12.32;;;4.80;99.90;;;;;;5013758;28;20226;-79
2022/12/11 10:59:55;;;;;;;38.45;13.35;;;4.50;99.90;;;;;;5012776;28;20218;-80
2022/12/11 11:02:25;;;;;;;32.90;12.35;;;4.40;99.90;;;;;;5013216;28;20230;-80
2022/12/11 11:04:52;;;;;;;26.15;12.30;;;4.40;99.90;;;;;;5012873;28;20168;-80
2022/12/11 11:07:24;;;;;;;29.60;11.75;;;4.40;99.90;;;;;;5013279;28;20211;-78
2022/12/11 11:10:02;;;;;;;40.72;12.85;;;4.40;99.90;;;;;;4999954;28;20181;-81
2022/12/11 11:12:28;;;;;;;34.58;12.70;;;4.50;99.90;;;;;;4993389;28;20518;-83
2022/12/11 11:15:06;;;;;;;39.13;15.05;;;4.60;99.90;;;;;;4991688;28;20217;-79
2022/12/11 11:17:40;;;;;;;27.70;12.57;;;4.30;99.90;;;;;;4992967;28;20177;-79
2022/12/11 11:20:16;;;;;;;33.92;14.18;;;4.50;99.90;;;;;;5006546;28;20183;-78
2022/12/11 11:22:58;;;;;;;34.00;12.98;;;4.90;99.90;;;;;;5011932;28;20675;-79
2022/12/11 11:25:27;;;;;;;31.83;12.10;;;4.90;99.90;;;;;;4994706;28;20180;-79
2022/12/11 11:28:05;;;;;;;27.05;11.32;;;5.10;99.90;;;;;;5012867;28;20923;-79
2022/12/11 11:30:37;;;;;;;25.33;11.60;;;5.10;99.90;;;;;;5015070;28;20222;-79
2022/12/11 11:33:11;;;;;;;34.85;12.23;;;5.10;99.90;;;;;;5018744;28;20196;-79
2022/12/11 11:35:36;;;;;;;34.50;11.52;;;5.10;99.90;;;;;;5031463;28;20168;-79
2022/12/11 11:38:08;;;;;;;27.40;12.05;;;5.00;99.90;;;;;;5032458;28;20219;-79
2022/12/11 11:40:42;;;;;;;43.85;12.35;;;5.10;99.90;;;;;;5019735;28;20579;-80
2022/12/11 11:43:35;;;;;;;31.58;11.82;;;4.90;99.90;;;;;;5013517;28;20181;-79
2022/12/11 11:46:10;;;;;;;27.40;11.82;;;4.80;99.90;;;;;;5012778;28;20599;-86
2022/12/11 11:48:50;;;;;;;29.05;11.98;;;4.90;99.90;;;;;;5011402;28;20204;-79
2022/12/11 11:51:31;;;;;;;24.20;11.13;;;4.90;99.90;;;;;;5012827;28;20282;-80
2022/12/11 11:54:00;;;;;;;25.25;10.02;;;5.10;99.90;;;;;;4998872;28;20223;-79
2022/12/11 11:56:36;;;;;;;23.92;10.70;;;4.80;99.90;;;;;;5007206;28;20173;-79
2022/12/11 11:59:32;;;;;;;25.13;10.43;;;4.90;99.90;;;;;;5012537;28;20519;-83
2022/12/11 12:01:58;;;;;;;23.98;11.55;;;5.10;99.90;;;;;;5012548;28;20219;-85
2022/12/11 12:04:33;;;;;;;20.88;8.98;;;5.40;99.90;;;;;;5012813;28;20172;-79
2022/12/11 12:07:26;;;;;;;31.40;10.07;;;5.30;99.90;;;;;;5012436;28;20695;-80
2022/12/11 12:10:30;;;;;;;18.25;7.38;;;5.40;99.90;;;;;;5012326;28;20187;-81
2022/12/11 12:13:47;;;;;;;18.58;7.63;;;5.20;99.90;;;;;;5012547;28;20196;-78
2022/12/11 12:16:37;;;;;;;22.20;8.23;;;5.30;99.90;;;;;;5003921;28;20181;-78
2022/12/11 12:19:17;;;;;;;18.48;9.18;;;5.20;99.90;;;;;;5017292;28;20235;-79
2022/12/11 12:21:48;;;;;;;14.65;8.63;;;5.20;99.90;;;;;;5014404;28;20192;-79
2022/12/11 12:24:28;;;;;;;15.90;8.23;;;4.90;99.90;;;;;;5016730;28;20512;-79
2022/12/11 12:27:22;;;;;;;25.15;10.50;;;5.00;99.90;;;;;;5014422;28;20212;-80
2022/12/11 12:30:00;;;;;;;35.78;9.60;;;5.20;99.90;;;;;;5015272;28;20165;-80
2022/12/11 12:32:55;;;;;;;21.85;9.25;;;5.10;99.90;;;;;;5015571;28;20204;-79
2022/12/11 12:35:51;;;;;;;24.73;12.98;;;5.20;99.90;;;;;;5016912;28;20231;-80
2022/12/11 12:38:34;;;;;;;28.92;12.70;;;5.00;99.90;;;;;;5015990;28;20660;-79
2022/12/11 12:41:20;;;;;;;28.05;12.25;;;5.00;99.90;;;;;;5015921;28;20192;-79
2022/12/11 12:43:59;;;;;;;24.55;11.30;;;5.00;99.90;;;;;;5016257;28;20160;-79
2022/12/11 12:46:33;;;;;;;28.73;12.13;;;4.70;99.90;;;;;;5016256;28;20290;-79
2022/12/11 12:49:01;;;;;;;31.33;13.00;;;4.60;99.90;;;;;;5014267;28;20180;-79
2022/12/11 12:51:27;;;;;;;24.45;11.43;;;4.50;99.90;;;;;;5016827;28;20280;-78
2022/12/11 12:53:59;;;;;;;30.30;12.95;;;4.50;99.90;;;;;;5017961;28;20188;-79
2022/12/11 12:56:28;;;;;;;34.22;14.57;;;4.60;99.90;;;;;;5016333;28;20651;-79
2022/12/11 12:58:53;;;;;;;35.40;13.27;;;4.70;99.90;;;;;;5016854;28;20251;-79
2022/12/11 13:01:24;;;;;;;23.27;12.30;;;4.90;99.90;;;;;;5017076;28;20239;-77
2022/12/11 13:04:02;;;;;;;28.63;13.18;;;4.90;99.90;;;;;;5015628;28;20177;-77